sensor_id;sensor_type;location;lat;lon;timestamp;P1;durP1;ratioP1;P2;durP2;ratioP2
3755;SDS011;1893;52.526;13.360;2023-08-08T00:01:53;7.27;;;1.93;;
3755;SDS011;1893;52.526;13.360;2023-08-08T00:04:19;6.70;;;1.70;;
3755;SDS011;1893;52.526;13.360;2023-08-08T00:06:44;3.53;;;1.43;;
3755;SDS011;1893;52.526;13.360;2023-08-08T00:09:10;7.20;;;1.60;;
3755;SDS011;1893;52.526;13.360;2023-08-08T00:11:35;2.67;;;1.83;;
3755;SDS011;1893;52.526;13.360;2023-08-08T00:14:01;4.77;;;1.80;;
3755;SDS011;1893;52.526;13.360;2023-08-08T00:16:27;5.33;;;2.10;;
3755;SDS011;1893;52.526;13.360;2023-08-08T00:18:53;5.30;;;1.53;;
3755;SDS011;1893;52.526;13.360;2023-08-08T00:21:19;2.83;;;1.77;;
3755;SDS011;1893;52.526;13.360;2023-08-08T00:23:45;4.30;;;2.27;;
3755;SDS011;1893;52.526;13.360;2023-08-08T00:26:11;6.30;;;1.70;;
3755;SDS011;1893;52.526;13.360;2023-08-08T00:28:36;2.93;;;2.00;;
3755;SDS011;1893;52.526;13.360;2023-08-08T00:31:02;7.93;;;1.67;;
3755;SDS011;1893;52.526;13.360;2023-08-08T00:33:27;5.40;;;1.80;;
3755;SDS011;1893;52.526;13.360;2023-08-08T00:35:53;4.30;;;1.70;;
3755;SDS011;1893;52.526;13.360;2023-08-08T00:38:19;3.80;;;1.40;;
3755;SDS011;1893;52.526;13.360;2023-08-08T00:40:44;7.13;;;2.20;;
3755;SDS011;1893;52.526;13.360;2023-08-08T00:43:10;9.37;;;2.20;;
3755;SDS011;1893;52.526;13.360;2023-08-08T00:45:36;2.60;;;1.20;;
3755;SDS011;1893;52.526;13.360;2023-08-08T00:48:02;3.33;;;1.50;;
3755;SDS011;1893;52.526;13.360;2023-08-08T00:50:28;5.70;;;2.17;;
3755;SDS011;1893;52.526;13.360;2023-08-08T00:52:54;2.50;;;1.70;;
3755;SDS011;1893;52.526;13.360;2023-08-08T00:55:20;5.70;;;1.50;;
3755;SDS011;1893;52.526;13.360;2023-08-08T00:57:46;2.80;;;1.33;;
3755;SDS011;1893;52.526;13.360;2023-08-08T01:00:12;4.50;;;2.23;;
3755;SDS011;1893;52.526;13.360;2023-08-08T01:02:38;3.77;;;2.07;;
3755;SDS011;1893;52.526;13.360;2023-08-08T01:05:04;5.83;;;2.00;;
3755;SDS011;1893;52.526;13.360;2023-08-08T01:10:15;5.83;;;1.90;;
3755;SDS011;1893;52.526;13.360;2023-08-08T01:12:46;3.00;;;1.50;;
3755;SDS011;1893;52.526;13.360;2023-08-08T01:15:14;2.80;;;1.17;;
3755;SDS011;1893;52.526;13.360;2023-08-08T01:17:42;3.97;;;1.50;;
3755;SDS011;1893;52.526;13.360;2023-08-08T01:20:09;4.90;;;1.50;;
3755;SDS011;1893;52.526;13.360;2023-08-08T01:22:36;4.40;;;1.47;;
3755;SDS011;1893;52.526;13.360;2023-08-08T01:25:05;2.87;;;1.60;;
3755;SDS011;1893;52.526;13.360;2023-08-08T01:27:31;4.63;;;1.63;;
3755;SDS011;1893;52.526;13.360;2023-08-08T01:29:57;4.50;;;1.73;;
3755;SDS011;1893;52.526;13.360;2023-08-08T01:32:23;6.20;;;2.40;;
3755;SDS011;1893;52.526;13.360;2023-08-08T01:34:48;3.93;;;1.73;;
3755;SDS011;1893;52.526;13.360;2023-08-08T01:37:16;2.60;;;1.50;;
3755;SDS011;1893;52.526;13.360;2023-08-08T01:39:47;2.40;;;1.50;;
3755;SDS011;1893;52.526;13.360;2023-08-08T01:42:14;3.00;;;1.30;;
3755;SDS011;1893;52.526;13.360;2023-08-08T01:44:41;3.60;;;1.53;;
3755;SDS011;1893;52.526;13.360;2023-08-08T01:47:07;3.83;;;1.40;;
3755;SDS011;1893;52.526;13.360;2023-08-08T01:49:33;2.57;;;1.50;;
3755;SDS011;1893;52.526;13.360;2023-08-08T01:51:59;3.60;;;1.50;;
3755;SDS011;1893;52.526;13.360;2023-08-08T01:54:24;5.20;;;1.53;;
3755;SDS011;1893;52.526;13.360;2023-08-08T01:56:50;3.00;;;1.30;;
3755;SDS011;1893;52.526;13.360;2023-08-08T01:59:16;6.13;;;1.53;;
3755;SDS011;1893;52.526;13.360;2023-08-08T02:01:42;3.87;;;1.50;;
3755;SDS011;1893;52.526;13.360;2023-08-08T02:04:07;3.17;;;1.43;;
3755;SDS011;1893;52.526;13.360;2023-08-08T02:06:33;3.77;;;1.43;;
3755;SDS011;1893;52.526;13.360;2023-08-08T02:08:59;2.97;;;1.43;;
3755;SDS011;1893;52.526;13.360;2023-08-08T02:11:24;2.83;;;1.50;;
3755;SDS011;1893;52.526;13.360;2023-08-08T02:13:50;2.80;;;1.50;;
3755;SDS011;1893;52.526;13.360;2023-08-08T02:16:15;2.17;;;1.10;;
3755;SDS011;1893;52.526;13.360;2023-08-08T02:18:41;6.53;;;1.67;;
3755;SDS011;1893;52.526;13.360;2023-08-08T02:21:07;1.90;;;1.20;;
3755;SDS011;1893;52.526;13.360;2023-08-08T02:23:33;1.30;;;0.90;;
3755;SDS011;1893;52.526;13.360;2023-08-08T02:25:59;2.80;;;1.30;;
3755;SDS011;1893;52.526;13.360;2023-08-08T02:28:25;3.10;;;1.33;;
3755;SDS011;1893;52.526;13.360;2023-08-08T02:30:50;3.10;;;1.73;;
3755;SDS011;1893;52.526;13.360;2023-08-08T02:33:16;4.80;;;1.50;;
3755;SDS011;1893;52.526;13.360;2023-08-08T02:35:42;2.90;;;1.73;;
3755;SDS011;1893;52.526;13.360;2023-08-08T02:38:07;3.03;;;1.57;;
3755;SDS011;1893;52.526;13.360;2023-08-08T02:40:33;3.17;;;1.50;;
3755;SDS011;1893;52.526;13.360;2023-08-08T02:42:58;2.00;;;1.33;;
3755;SDS011;1893;52.526;13.360;2023-08-08T02:45:24;4.00;;;1.77;;
3755;SDS011;1893;52.526;13.360;2023-08-08T02:47:50;1.77;;;1.47;;
3755;SDS011;1893;52.526;13.360;2023-08-08T02:50:15;2.77;;;1.60;;
3755;SDS011;1893;52.526;13.360;2023-08-08T02:52:41;3.70;;;2.20;;
3755;SDS011;1893;52.526;13.360;2023-08-08T02:55:07;3.03;;;1.23;;
3755;SDS011;1893;52.526;13.360;2023-08-08T02:57:33;3.07;;;1.47;;
3755;SDS011;1893;52.526;13.360;2023-08-08T02:59:59;3.20;;;1.60;;
3755;SDS011;1893;52.526;13.360;2023-08-08T03:02:24;2.17;;;1.20;;
3755;SDS011;1893;52.526;13.360;2023-08-08T03:04:50;3.10;;;1.60;;
3755;SDS011;1893;52.526;13.360;2023-08-08T03:07:16;3.00;;;1.70;;
3755;SDS011;1893;52.526;13.360;2023-08-08T03:09:41;6.20;;;2.13;;
3755;SDS011;1893;52.526;13.360;2023-08-08T03:12:07;4.60;;;2.07;;
3755;SDS011;1893;52.526;13.360;2023-08-08T03:14:33;3.20;;;1.70;;
3755;SDS011;1893;52.526;13.360;2023-08-08T03:16:59;2.50;;;1.60;;
3755;SDS011;1893;52.526;13.360;2023-08-08T03:19:25;5.40;;;1.93;;
3755;SDS011;1893;52.526;13.360;2023-08-08T03:21:51;1.87;;;1.77;;
3755;SDS011;1893;52.526;13.360;2023-08-08T03:24:16;5.33;;;1.90;;
3755;SDS011;1893;52.526;13.360;2023-08-08T03:26:42;2.60;;;2.40;;
3755;SDS011;1893;52.526;13.360;2023-08-08T03:29:08;4.67;;;1.93;;
3755;SDS011;1893;52.526;13.360;2023-08-08T03:31:35;2.83;;;1.97;;
3755;SDS011;1893;52.526;13.360;2023-08-08T03:34:01;2.30;;;1.83;;
3755;SDS011;1893;52.526;13.360;2023-08-08T03:36:27;4.30;;;2.90;;
3755;SDS011;1893;52.526;13.360;2023-08-08T03:38:52;5.10;;;2.17;;
3755;SDS011;1893;52.526;13.360;2023-08-08T03:41:18;1.90;;;1.63;;
3755;SDS011;1893;52.526;13.360;2023-08-08T03:43:44;6.33;;;2.37;;
3755;SDS011;1893;52.526;13.360;2023-08-08T03:46:09;3.90;;;2.30;;
3755;SDS011;1893;52.526;13.360;2023-08-08T03:48:36;3.23;;;1.33;;
3755;SDS011;1893;52.526;13.360;2023-08-08T03:51:02;6.03;;;1.83;;
3755;SDS011;1893;52.526;13.360;2023-08-08T03:53:28;3.13;;;1.80;;
3755;SDS011;1893;52.526;13.360;2023-08-08T03:55:54;6.20;;;2.43;;
3755;SDS011;1893;52.526;13.360;2023-08-08T03:58:20;2.90;;;2.20;;
3755;SDS011;1893;52.526;13.360;2023-08-08T04:00:45;2.37;;;1.93;;
3755;SDS011;1893;52.526;13.360;2023-08-08T04:03:14;3.10;;;2.30;;
3755;SDS011;1893;52.526;13.360;2023-08-08T04:05:41;4.23;;;2.20;;
3755;SDS011;1893;52.526;13.360;2023-08-08T04:08:11;2.87;;;2.13;;
3755;SDS011;1893;52.526;13.360;2023-08-08T04:10:37;3.67;;;1.83;;
3755;SDS011;1893;52.526;13.360;2023-08-08T04:13:03;9.47;;;2.33;;
3755;SDS011;1893;52.526;13.360;2023-08-08T04:15:28;1.80;;;1.50;;
3755;SDS011;1893;52.526;13.360;2023-08-08T04:17:54;21.60;;;2.53;;
3755;SDS011;1893;52.526;13.360;2023-08-08T04:20:20;3.37;;;2.10;;
3755;SDS011;1893;52.526;13.360;2023-08-08T04:22:45;4.17;;;1.70;;
3755;SDS011;1893;52.526;13.360;2023-08-08T04:25:11;6.00;;;2.50;;
3755;SDS011;1893;52.526;13.360;2023-08-08T04:27:36;3.30;;;1.90;;
3755;SDS011;1893;52.526;13.360;2023-08-08T04:30:03;6.10;;;1.77;;
3755;SDS011;1893;52.526;13.360;2023-08-08T04:32:29;3.43;;;1.90;;
3755;SDS011;1893;52.526;13.360;2023-08-08T04:34:55;4.13;;;2.03;;
3755;SDS011;1893;52.526;13.360;2023-08-08T04:37:21;2.07;;;1.80;;
3755;SDS011;1893;52.526;13.360;2023-08-08T04:39:46;9.10;;;2.10;;
3755;SDS011;1893;52.526;13.360;2023-08-08T04:42:12;2.33;;;2.00;;
3755;SDS011;1893;52.526;13.360;2023-08-08T04:44:37;2.80;;;1.93;;
3755;SDS011;1893;52.526;13.360;2023-08-08T04:47:04;5.53;;;1.80;;
3755;SDS011;1893;52.526;13.360;2023-08-08T04:49:29;3.10;;;1.77;;
3755;SDS011;1893;52.526;13.360;2023-08-08T04:51:55;10.20;;;2.20;;
3755;SDS011;1893;52.526;13.360;2023-08-08T04:54:20;5.20;;;2.17;;
3755;SDS011;1893;52.526;13.360;2023-08-08T04:56:46;5.63;;;1.60;;
3755;SDS011;1893;52.526;13.360;2023-08-08T04:59:12;2.83;;;1.80;;
3755;SDS011;1893;52.526;13.360;2023-08-08T05:01:37;2.73;;;1.80;;
3755;SDS011;1893;52.526;13.360;2023-08-08T05:04:03;2.80;;;2.13;;
3755;SDS011;1893;52.526;13.360;2023-08-08T05:06:29;2.20;;;1.90;;
3755;SDS011;1893;52.526;13.360;2023-08-08T05:08:54;2.57;;;1.90;;
3755;SDS011;1893;52.526;13.360;2023-08-08T05:11:21;6.93;;;2.00;;
3755;SDS011;1893;52.526;13.360;2023-08-08T05:13:47;4.80;;;1.93;;
3755;SDS011;1893;52.526;13.360;2023-08-08T05:16:13;2.60;;;1.93;;
3755;SDS011;1893;52.526;13.360;2023-08-08T05:18:38;3.60;;;1.97;;
3755;SDS011;1893;52.526;13.360;2023-08-08T05:21:04;2.80;;;1.90;;
3755;SDS011;1893;52.526;13.360;2023-08-08T05:23:29;8.40;;;2.00;;
3755;SDS011;1893;52.526;13.360;2023-08-08T05:25:55;2.97;;;1.80;;
3755;SDS011;1893;52.526;13.360;2023-08-08T05:28:21;4.47;;;2.40;;
3755;SDS011;1893;52.526;13.360;2023-08-08T05:30:46;3.27;;;2.23;;
3755;SDS011;1893;52.526;13.360;2023-08-08T05:33:12;2.50;;;1.83;;
3755;SDS011;1893;52.526;13.360;2023-08-08T05:35:38;2.37;;;1.60;;
3755;SDS011;1893;52.526;13.360;2023-08-08T05:38:03;4.43;;;1.90;;
3755;SDS011;1893;52.526;13.360;2023-08-08T05:40:29;4.57;;;1.80;;
3755;SDS011;1893;52.526;13.360;2023-08-08T05:42:55;3.30;;;1.90;;
3755;SDS011;1893;52.526;13.360;2023-08-08T05:45:20;3.10;;;1.57;;
3755;SDS011;1893;52.526;13.360;2023-08-08T05:47:46;2.80;;;1.80;;
3755;SDS011;1893;52.526;13.360;2023-08-08T05:50:11;2.90;;;1.60;;
3755;SDS011;1893;52.526;13.360;2023-08-08T05:52:37;5.80;;;1.87;;
3755;SDS011;1893;52.526;13.360;2023-08-08T05:55:02;2.40;;;1.90;;
3755;SDS011;1893;52.526;13.360;2023-08-08T05:57:28;6.17;;;2.43;;
3755;SDS011;1893;52.526;13.360;2023-08-08T05:59:54;2.67;;;1.90;;
3755;SDS011;1893;52.526;13.360;2023-08-08T06:02:19;4.47;;;2.00;;
3755;SDS011;1893;52.526;13.360;2023-08-08T06:04:45;3.57;;;1.97;;
3755;SDS011;1893;52.526;13.360;2023-08-08T06:07:11;4.13;;;2.40;;
3755;SDS011;1893;52.526;13.360;2023-08-08T06:09:36;3.00;;;2.00;;
3755;SDS011;1893;52.526;13.360;2023-08-08T06:12:02;4.27;;;1.70;;
3755;SDS011;1893;52.526;13.360;2023-08-08T06:14:28;1.80;;;1.67;;
3755;SDS011;1893;52.526;13.360;2023-08-08T06:16:55;3.40;;;1.90;;
3755;SDS011;1893;52.526;13.360;2023-08-08T06:19:20;2.90;;;2.13;;
3755;SDS011;1893;52.526;13.360;2023-08-08T06:21:46;5.47;;;2.37;;
3755;SDS011;1893;52.526;13.360;2023-08-08T06:24:12;3.53;;;1.93;;
3755;SDS011;1893;52.526;13.360;2023-08-08T06:26:37;4.97;;;2.07;;
3755;SDS011;1893;52.526;13.360;2023-08-08T06:29:03;4.93;;;1.80;;
3755;SDS011;1893;52.526;13.360;2023-08-08T06:31:29;3.17;;;2.00;;
3755;SDS011;1893;52.526;13.360;2023-08-08T06:33:55;5.33;;;1.93;;
3755;SDS011;1893;52.526;13.360;2023-08-08T06:36:20;7.97;;;2.30;;
3755;SDS011;1893;52.526;13.360;2023-08-08T06:38:46;4.30;;;2.57;;
3755;SDS011;1893;52.526;13.360;2023-08-08T06:41:12;2.83;;;2.23;;
3755;SDS011;1893;52.526;13.360;2023-08-08T06:43:37;7.43;;;2.10;;
3755;SDS011;1893;52.526;13.360;2023-08-08T06:46:04;3.27;;;1.80;;
3755;SDS011;1893;52.526;13.360;2023-08-08T06:48:30;6.50;;;2.30;;
3755;SDS011;1893;52.526;13.360;2023-08-08T06:50:55;4.13;;;2.00;;
3755;SDS011;1893;52.526;13.360;2023-08-08T06:53:21;4.53;;;1.80;;
3755;SDS011;1893;52.526;13.360;2023-08-08T06:55:47;5.07;;;2.43;;
3755;SDS011;1893;52.526;13.360;2023-08-08T06:58:13;3.60;;;2.50;;
3755;SDS011;1893;52.526;13.360;2023-08-08T07:00:38;2.70;;;1.70;;
3755;SDS011;1893;52.526;13.360;2023-08-08T07:03:04;4.40;;;1.60;;
3755;SDS011;1893;52.526;13.360;2023-08-08T07:05:30;3.57;;;2.03;;
3755;SDS011;1893;52.526;13.360;2023-08-08T07:07:56;2.00;;;1.80;;
3755;SDS011;1893;52.526;13.360;2023-08-08T07:10:21;5.17;;;2.03;;
3755;SDS011;1893;52.526;13.360;2023-08-08T07:12:47;6.40;;;2.43;;
3755;SDS011;1893;52.526;13.360;2023-08-08T07:15:13;4.60;;;2.70;;
3755;SDS011;1893;52.526;13.360;2023-08-08T07:17:39;3.40;;;1.97;;
3755;SDS011;1893;52.526;13.360;2023-08-08T07:20:05;5.57;;;1.80;;
3755;SDS011;1893;52.526;13.360;2023-08-08T07:22:32;2.97;;;1.97;;
3755;SDS011;1893;52.526;13.360;2023-08-08T07:24:58;2.50;;;2.00;;
3755;SDS011;1893;52.526;13.360;2023-08-08T07:27:25;3.90;;;2.03;;
3755;SDS011;1893;52.526;13.360;2023-08-08T07:29:51;6.17;;;1.67;;
3755;SDS011;1893;52.526;13.360;2023-08-08T07:32:17;6.73;;;2.27;;
3755;SDS011;1893;52.526;13.360;2023-08-08T07:34:43;3.47;;;1.77;;
3755;SDS011;1893;52.526;13.360;2023-08-08T07:37:08;2.17;;;1.97;;
3755;SDS011;1893;52.526;13.360;2023-08-08T07:39:34;4.50;;;2.13;;
3755;SDS011;1893;52.526;13.360;2023-08-08T07:41:59;2.70;;;2.27;;
3755;SDS011;1893;52.526;13.360;2023-08-08T07:44:25;7.53;;;2.30;;
3755;SDS011;1893;52.526;13.360;2023-08-08T07:46:51;6.40;;;2.10;;
3755;SDS011;1893;52.526;13.360;2023-08-08T07:49:16;2.60;;;2.33;;
3755;SDS011;1893;52.526;13.360;2023-08-08T07:51:42;2.30;;;1.73;;
3755;SDS011;1893;52.526;13.360;2023-08-08T07:54:08;3.47;;;2.40;;
3755;SDS011;1893;52.526;13.360;2023-08-08T07:56:35;2.60;;;2.13;;
3755;SDS011;1893;52.526;13.360;2023-08-08T07:59:01;2.20;;;1.93;;
3755;SDS011;1893;52.526;13.360;2023-08-08T08:01:27;5.20;;;2.10;;
3755;SDS011;1893;52.526;13.360;2023-08-08T08:03:53;2.20;;;2.00;;
3755;SDS011;1893;52.526;13.360;2023-08-08T08:06:19;2.40;;;2.20;;
3755;SDS011;1893;52.526;13.360;2023-08-08T08:08:44;6.40;;;2.20;;
3755;SDS011;1893;52.526;13.360;2023-08-08T08:11:10;3.07;;;2.03;;
3755;SDS011;1893;52.526;13.360;2023-08-08T08:13:38;5.13;;;2.03;;
3755;SDS011;1893;52.526;13.360;2023-08-08T08:16:03;1.90;;;1.80;;
3755;SDS011;1893;52.526;13.360;2023-08-08T08:18:30;2.33;;;2.13;;
3755;SDS011;1893;52.526;13.360;2023-08-08T08:20:55;4.73;;;1.90;;
3755;SDS011;1893;52.526;13.360;2023-08-08T08:23:21;4.47;;;2.20;;
3755;SDS011;1893;52.526;13.360;2023-08-08T08:25:47;3.33;;;1.97;;
3755;SDS011;1893;52.526;13.360;2023-08-08T08:28:13;7.87;;;1.60;;
3755;SDS011;1893;52.526;13.360;2023-08-08T08:30:39;3.63;;;1.83;;
3755;SDS011;1893;52.526;13.360;2023-08-08T08:33:05;3.43;;;1.83;;
3755;SDS011;1893;52.526;13.360;2023-08-08T08:35:32;2.50;;;2.17;;
3755;SDS011;1893;52.526;13.360;2023-08-08T08:37:59;3.87;;;2.10;;
3755;SDS011;1893;52.526;13.360;2023-08-08T08:40:24;2.90;;;1.50;;
3755;SDS011;1893;52.526;13.360;2023-08-08T08:42:51;3.00;;;1.80;;
3755;SDS011;1893;52.526;13.360;2023-08-08T08:45:17;2.40;;;1.40;;
3755;SDS011;1893;52.526;13.360;2023-08-08T08:47:46;3.10;;;1.47;;
3755;SDS011;1893;52.526;13.360;2023-08-08T08:50:16;2.30;;;1.77;;
3755;SDS011;1893;52.526;13.360;2023-08-08T08:52:43;1.60;;;1.50;;
3755;SDS011;1893;52.526;13.360;2023-08-08T08:55:09;3.10;;;1.77;;
3755;SDS011;1893;52.526;13.360;2023-08-08T08:57:35;3.00;;;1.80;;
3755;SDS011;1893;52.526;13.360;2023-08-08T09:00:02;5.50;;;1.63;;
3755;SDS011;1893;52.526;13.360;2023-08-08T09:02:28;3.10;;;2.17;;
3755;SDS011;1893;52.526;13.360;2023-08-08T09:04:54;3.10;;;1.60;;
3755;SDS011;1893;52.526;13.360;2023-08-08T09:07:20;5.07;;;2.40;;
3755;SDS011;1893;52.526;13.360;2023-08-08T09:09:50;2.80;;;1.70;;
3755;SDS011;1893;52.526;13.360;2023-08-08T09:12:16;3.30;;;1.73;;
3755;SDS011;1893;52.526;13.360;2023-08-08T09:14:42;6.23;;;1.80;;
3755;SDS011;1893;52.526;13.360;2023-08-08T09:17:11;3.13;;;1.73;;
3755;SDS011;1893;52.526;13.360;2023-08-08T09:19:38;2.90;;;1.97;;
3755;SDS011;1893;52.526;13.360;2023-08-08T09:22:08;2.17;;;2.03;;
3755;SDS011;1893;52.526;13.360;2023-08-08T09:24:37;3.77;;;2.43;;
3755;SDS011;1893;52.526;13.360;2023-08-08T09:27:09;3.03;;;1.67;;
3755;SDS011;1893;52.526;13.360;2023-08-08T09:29:35;2.87;;;1.77;;
3755;SDS011;1893;52.526;13.360;2023-08-08T09:32:07;3.10;;;1.73;;
3755;SDS011;1893;52.526;13.360;2023-08-08T09:34:33;2.17;;;1.50;;
3755;SDS011;1893;52.526;13.360;2023-08-08T09:36:59;2.97;;;2.00;;
3755;SDS011;1893;52.526;13.360;2023-08-08T09:39:25;2.43;;;1.60;;
3755;SDS011;1893;52.526;13.360;2023-08-08T09:41:51;2.40;;;1.70;;
3755;SDS011;1893;52.526;13.360;2023-08-08T09:44:17;2.13;;;1.50;;
3755;SDS011;1893;52.526;13.360;2023-08-08T09:46:43;2.77;;;1.77;;
3755;SDS011;1893;52.526;13.360;2023-08-08T09:49:09;3.00;;;1.43;;
3755;SDS011;1893;52.526;13.360;2023-08-08T09:51:37;4.50;;;1.60;;
3755;SDS011;1893;52.526;13.360;2023-08-08T09:54:03;4.20;;;2.53;;
3755;SDS011;1893;52.526;13.360;2023-08-08T09:56:32;6.13;;;2.27;;
3755;SDS011;1893;52.526;13.360;2023-08-08T09:58:59;3.50;;;2.00;;
3755;SDS011;1893;52.526;13.360;2023-08-08T10:01:25;7.70;;;2.57;;
3755;SDS011;1893;52.526;13.360;2023-08-08T10:03:52;21.63;;;3.07;;
3755;SDS011;1893;52.526;13.360;2023-08-08T10:06:18;3.50;;;2.90;;
3755;SDS011;1893;52.526;13.360;2023-08-08T10:08:44;8.00;;;3.17;;
3755;SDS011;1893;52.526;13.360;2023-08-08T10:11:10;8.30;;;3.23;;
3755;SDS011;1893;52.526;13.360;2023-08-08T10:13:37;5.40;;;4.10;;
3755;SDS011;1893;52.526;13.360;2023-08-08T10:16:11;4.70;;;3.40;;
3755;SDS011;1893;52.526;13.360;2023-08-08T10:18:37;5.23;;;3.97;;
3755;SDS011;1893;52.526;13.360;2023-08-08T10:21:06;5.33;;;3.30;;
3755;SDS011;1893;52.526;13.360;2023-08-08T10:23:37;6.83;;;3.77;;
3755;SDS011;1893;52.526;13.360;2023-08-08T10:26:03;6.77;;;3.60;;
3755;SDS011;1893;52.526;13.360;2023-08-08T10:28:31;4.20;;;3.43;;
3755;SDS011;1893;52.526;13.360;2023-08-08T10:31:00;6.67;;;3.20;;
3755;SDS011;1893;52.526;13.360;2023-08-08T10:33:42;3.60;;;2.50;;
3755;SDS011;1893;52.526;13.360;2023-08-08T10:36:09;5.17;;;2.37;;
3755;SDS011;1893;52.526;13.360;2023-08-08T10:38:50;5.00;;;1.93;;
3755;SDS011;1893;52.526;13.360;2023-08-08T10:41:17;2.50;;;2.17;;
3755;SDS011;1893;52.526;13.360;2023-08-08T10:43:48;3.30;;;2.37;;
3755;SDS011;1893;52.526;13.360;2023-08-08T10:46:22;2.77;;;2.10;;
3755;SDS011;1893;52.526;13.360;2023-08-08T10:48:53;3.20;;;2.67;;
3755;SDS011;1893;52.526;13.360;2023-08-08T10:51:21;7.60;;;2.07;;
3755;SDS011;1893;52.526;13.360;2023-08-08T10:53:50;5.60;;;2.57;;
3755;SDS011;1893;52.526;13.360;2023-08-08T10:56:17;4.50;;;2.50;;
3755;SDS011;1893;52.526;13.360;2023-08-08T10:58:47;3.70;;;2.70;;
3755;SDS011;1893;52.526;13.360;2023-08-08T11:01:14;3.00;;;2.03;;
3755;SDS011;1893;52.526;13.360;2023-08-08T11:03:41;2.43;;;1.87;;
3755;SDS011;1893;52.526;13.360;2023-08-08T11:06:08;1.70;;;1.60;;
3755;SDS011;1893;52.526;13.360;2023-08-08T11:08:34;2.40;;;2.00;;
3755;SDS011;1893;52.526;13.360;2023-08-08T11:11:03;4.23;;;1.93;;
3755;SDS011;1893;52.526;13.360;2023-08-08T11:13:29;2.77;;;1.87;;
3755;SDS011;1893;52.526;13.360;2023-08-08T11:15:55;2.20;;;1.53;;
3755;SDS011;1893;52.526;13.360;2023-08-08T11:18:21;2.47;;;1.80;;
3755;SDS011;1893;52.526;13.360;2023-08-08T11:20:47;2.03;;;1.60;;
3755;SDS011;1893;52.526;13.360;2023-08-08T11:23:14;3.53;;;1.60;;
3755;SDS011;1893;52.526;13.360;2023-08-08T11:25:44;3.50;;;2.43;;
3755;SDS011;1893;52.526;13.360;2023-08-08T11:28:10;2.40;;;1.77;;
3755;SDS011;1893;52.526;13.360;2023-08-08T11:30:38;1.17;;;1.07;;
3755;SDS011;1893;52.526;13.360;2023-08-08T11:33:08;1.50;;;1.40;;
3755;SDS011;1893;52.526;13.360;2023-08-08T11:35:35;2.33;;;1.17;;
3755;SDS011;1893;52.526;13.360;2023-08-08T11:38:02;1.40;;;1.30;;
3755;SDS011;1893;52.526;13.360;2023-08-08T11:40:29;3.60;;;1.30;;
3755;SDS011;1893;52.526;13.360;2023-08-08T11:42:55;2.10;;;1.27;;
3755;SDS011;1893;52.526;13.360;2023-08-08T11:45:22;1.80;;;1.17;;
3755;SDS011;1893;52.526;13.360;2023-08-08T11:47:52;1.33;;;1.23;;
3755;SDS011;1893;52.526;13.360;2023-08-08T11:50:19;2.30;;;1.30;;
3755;SDS011;1893;52.526;13.360;2023-08-08T11:52:48;1.70;;;1.53;;
3755;SDS011;1893;52.526;13.360;2023-08-08T11:55:15;5.60;;;1.83;;
3755;SDS011;1893;52.526;13.360;2023-08-08T11:57:41;2.40;;;1.50;;
3755;SDS011;1893;52.526;13.360;2023-08-08T12:00:08;1.60;;;1.50;;
3755;SDS011;1893;52.526;13.360;2023-08-08T12:02:38;2.23;;;2.00;;
3755;SDS011;1893;52.526;13.360;2023-08-08T12:05:08;2.00;;;1.90;;
3755;SDS011;1893;52.526;13.360;2023-08-08T12:07:36;3.80;;;1.90;;
3755;SDS011;1893;52.526;13.360;2023-08-08T12:10:03;5.67;;;1.77;;
3755;SDS011;1893;52.526;13.360;2023-08-08T12:12:31;2.53;;;1.60;;
3755;SDS011;1893;52.526;13.360;2023-08-08T12:15:05;2.53;;;1.83;;
3755;SDS011;1893;52.526;13.360;2023-08-08T12:17:31;3.37;;;2.23;;
3755;SDS011;1893;52.526;13.360;2023-08-08T12:20:00;2.37;;;1.63;;
3755;SDS011;1893;52.526;13.360;2023-08-08T12:22:28;2.40;;;1.80;;
3755;SDS011;1893;52.526;13.360;2023-08-08T12:24:54;3.60;;;2.30;;
3755;SDS011;1893;52.526;13.360;2023-08-08T12:27:20;2.37;;;2.13;;
3755;SDS011;1893;52.526;13.360;2023-08-08T12:29:45;3.90;;;2.53;;
3755;SDS011;1893;52.526;13.360;2023-08-08T12:32:11;6.13;;;2.50;;
3755;SDS011;1893;52.526;13.360;2023-08-08T12:34:37;2.90;;;2.20;;
3755;SDS011;1893;52.526;13.360;2023-08-08T12:37:02;3.00;;;2.30;;
3755;SDS011;1893;52.526;13.360;2023-08-08T12:39:28;2.40;;;2.20;;
3755;SDS011;1893;52.526;13.360;2023-08-08T12:41:54;4.40;;;2.10;;
3755;SDS011;1893;52.526;13.360;2023-08-08T12:44:21;4.43;;;2.33;;
3755;SDS011;1893;52.526;13.360;2023-08-08T12:46:47;3.57;;;2.30;;
3755;SDS011;1893;52.526;13.360;2023-08-08T12:49:12;5.53;;;2.30;;
3755;SDS011;1893;52.526;13.360;2023-08-08T12:51:38;3.93;;;2.30;;
3755;SDS011;1893;52.526;13.360;2023-08-08T12:54:03;2.30;;;2.20;;
3755;SDS011;1893;52.526;13.360;2023-08-08T12:56:29;4.33;;;2.13;;
3755;SDS011;1893;52.526;13.360;2023-08-08T12:58:55;2.40;;;2.20;;
3755;SDS011;1893;52.526;13.360;2023-08-08T13:01:20;3.93;;;3.40;;
3755;SDS011;1893;52.526;13.360;2023-08-08T13:03:46;3.00;;;2.80;;
3755;SDS011;1893;52.526;13.360;2023-08-08T13:06:12;2.27;;;1.83;;
3755;SDS011;1893;52.526;13.360;2023-08-08T13:08:38;2.60;;;1.90;;
3755;SDS011;1893;52.526;13.360;2023-08-08T13:11:04;2.27;;;2.07;;
3755;SDS011;1893;52.526;13.360;2023-08-08T13:13:30;1.97;;;1.77;;
3755;SDS011;1893;52.526;13.360;2023-08-08T13:15:55;3.67;;;1.60;;
3755;SDS011;1893;52.526;13.360;2023-08-08T13:18:21;4.07;;;2.20;;
3755;SDS011;1893;52.526;13.360;2023-08-08T13:20:47;2.53;;;1.80;;
3755;SDS011;1893;52.526;13.360;2023-08-08T13:23:12;1.77;;;1.50;;
3755;SDS011;1893;52.526;13.360;2023-08-08T13:25:38;5.30;;;1.60;;
3755;SDS011;1893;52.526;13.360;2023-08-08T13:28:04;3.03;;;2.00;;
3755;SDS011;1893;52.526;13.360;2023-08-08T13:30:30;1.80;;;1.70;;
3755;SDS011;1893;52.526;13.360;2023-08-08T13:32:55;3.07;;;1.70;;
3755;SDS011;1893;52.526;13.360;2023-08-08T13:35:21;1.90;;;1.70;;
3755;SDS011;1893;52.526;13.360;2023-08-08T13:37:47;3.33;;;1.87;;
3755;SDS011;1893;52.526;13.360;2023-08-08T13:40:17;4.57;;;1.30;;
3755;SDS011;1893;52.526;13.360;2023-08-08T13:42:43;1.57;;;1.17;;
3755;SDS011;1893;52.526;13.360;2023-08-08T13:45:12;1.63;;;0.90;;
3755;SDS011;1893;52.526;13.360;2023-08-08T13:47:45;5.23;;;1.67;;
3755;SDS011;1893;52.526;13.360;2023-08-08T13:50:11;1.07;;;0.97;;
3755;SDS011;1893;52.526;13.360;2023-08-08T13:52:38;1.83;;;1.00;;
3755;SDS011;1893;52.526;13.360;2023-08-08T13:55:05;2.33;;;1.00;;
3755;SDS011;1893;52.526;13.360;2023-08-08T13:57:31;1.43;;;1.10;;
3755;SDS011;1893;52.526;13.360;2023-08-08T13:59:57;1.73;;;1.20;;
3755;SDS011;1893;52.526;13.360;2023-08-08T14:02:23;2.33;;;1.20;;
3755;SDS011;1893;52.526;13.360;2023-08-08T14:04:48;1.70;;;1.30;;
3755;SDS011;1893;52.526;13.360;2023-08-08T14:07:14;1.83;;;1.47;;
3755;SDS011;1893;52.526;13.360;2023-08-08T14:09:40;1.90;;;1.77;;
3755;SDS011;1893;52.526;13.360;2023-08-08T14:12:05;2.03;;;1.53;;
3755;SDS011;1893;52.526;13.360;2023-08-08T14:14:31;1.80;;;1.37;;
3755;SDS011;1893;52.526;13.360;2023-08-08T14:16:57;1.87;;;1.77;;
3755;SDS011;1893;52.526;13.360;2023-08-08T14:19:22;4.30;;;1.90;;
3755;SDS011;1893;52.526;13.360;2023-08-08T14:21:48;2.17;;;1.70;;
3755;SDS011;1893;52.526;13.360;2023-08-08T14:24:14;2.53;;;1.70;;
3755;SDS011;1893;52.526;13.360;2023-08-08T14:26:40;1.83;;;1.63;;
3755;SDS011;1893;52.526;13.360;2023-08-08T14:29:06;2.00;;;1.80;;
3755;SDS011;1893;52.526;13.360;2023-08-08T14:31:31;2.10;;;1.80;;
3755;SDS011;1893;52.526;13.360;2023-08-08T14:33:57;2.63;;;1.60;;
3755;SDS011;1893;52.526;13.360;2023-08-08T14:36:23;2.30;;;1.80;;
3755;SDS011;1893;52.526;13.360;2023-08-08T14:38:48;1.93;;;1.50;;
3755;SDS011;1893;52.526;13.360;2023-08-08T14:41:14;1.50;;;1.40;;
3755;SDS011;1893;52.526;13.360;2023-08-08T14:43:39;2.90;;;1.60;;
3755;SDS011;1893;52.526;13.360;2023-08-08T14:46:05;3.00;;;2.27;;
3755;SDS011;1893;52.526;13.360;2023-08-08T14:48:31;2.00;;;1.83;;
3755;SDS011;1893;52.526;13.360;2023-08-08T14:50:56;4.63;;;2.20;;
3755;SDS011;1893;52.526;13.360;2023-08-08T14:53:24;1.93;;;1.80;;
3755;SDS011;1893;52.526;13.360;2023-08-08T14:55:50;4.17;;;2.70;;
3755;SDS011;1893;52.526;13.360;2023-08-08T14:58:16;3.53;;;1.73;;